sensor_id;sensor_type;location;lat;lon;timestamp;temperature;humidity
2389;DHT22;1205;47.984;7.668;2022-09-03T00:00:55;18.20;99.90
2389;DHT22;1205;47.984;7.668;2022-09-03T00:06:43;18.20;99.90
2389;DHT22;1205;47.984;7.668;2022-09-03T00:09:45;18.20;99.90
2389;DHT22;1205;47.984;7.668;2022-09-03T00:12:32;18.30;99.90
2389;DHT22;1205;47.984;7.668;2022-09-03T00:15:06;18.30;99.90
2389;DHT22;1205;47.984;7.668;2022-09-03T00:20:30;18.20;99.90
2389;DHT22;1205;47.984;7.668;2022-09-03T00:22:59;18.10;99.90
2389;DHT22;1205;47.984;7.668;2022-09-03T00:25:42;18.20;99.90
2389;DHT22;1205;47.984;7.668;2022-09-03T00:28:22;18.30;99.90
2389;DHT22;1205;47.984;7.668;2022-09-03T00:30:53;18.20;99.90
2389;DHT22;1205;47.984;7.668;2022-09-03T00:33:25;18.20;99.90
2389;DHT22;1205;47.984;7.668;2022-09-03T00:38:28;18.30;99.90
2389;DHT22;1205;47.984;7.668;2022-09-03T00:54:39;18.30;99.90
2389;DHT22;1205;47.984;7.668;2022-09-03T01:13:54;18.20;99.90
2389;DHT22;1205;47.984;7.668;2022-09-03T01:16:39;18.30;99.90
2389;DHT22;1205;47.984;7.668;2022-09-03T01:30:06;18.40;99.90
2389;DHT22;1205;47.984;7.668;2022-09-03T01:35:42;18.30;99.90
2389;DHT22;1205;47.984;7.668;2022-09-03T01:44:01;18.30;99.90
2389;DHT22;1205;47.984;7.668;2022-09-03T01:47:02;18.30;99.90
2389;DHT22;1205;47.984;7.668;2022-09-03T01:49:46;18.40;99.90
2389;DHT22;1205;47.984;7.668;2022-09-03T01:52:20;18.40;99.90
2389;DHT22;1205;47.984;7.668;2022-09-03T01:55:05;18.50;99.90
2389;DHT22;1205;47.984;7.668;2022-09-03T01:57:52;18.60;99.90
2389;DHT22;1205;47.984;7.668;2022-09-03T02:00:20;18.60;99.90
2389;DHT22;1205;47.984;7.668;2022-09-03T02:02:49;18.60;99.90
2389;DHT22;1205;47.984;7.668;2022-09-03T02:05:25;18.60;99.90
2389;DHT22;1205;47.984;7.668;2022-09-03T02:08:01;18.70;99.90
2389;DHT22;1205;47.984;7.668;2022-09-03T02:13:09;18.50;99.90
2389;DHT22;1205;47.984;7.668;2022-09-03T02:15:38;18.40;99.90
2389;DHT22;1205;47.984;7.668;2022-09-03T02:18:09;18.50;99.90
2389;DHT22;1205;47.984;7.668;2022-09-03T02:20:36;18.50;99.90
2389;DHT22;1205;47.984;7.668;2022-09-03T02:23:02;18.50;99.90
2389;DHT22;1205;47.984;7.668;2022-09-03T02:25:32;18.50;99.90
2389;DHT22;1205;47.984;7.668;2022-09-03T02:28:01;18.40;99.90
2389;DHT22;1205;47.984;7.668;2022-09-03T02:30:27;18.40;99.90
2389;DHT22;1205;47.984;7.668;2022-09-03T02:32:53;18.30;99.90
2389;DHT22;1205;47.984;7.668;2022-09-03T02:35:18;18.30;99.90
2389;DHT22;1205;47.984;7.668;2022-09-03T02:37:44;18.40;99.90
2389;DHT22;1205;47.984;7.668;2022-09-03T02:40:10;18.40;99.90
2389;DHT22;1205;47.984;7.668;2022-09-03T02:42:36;18.40;99.90
2389;DHT22;1205;47.984;7.668;2022-09-03T02:47:35;18.40;99.90
2389;DHT22;1205;47.984;7.668;2022-09-03T02:50:02;18.40;99.90
2389;DHT22;1205;47.984;7.668;2022-09-03T02:52:28;18.30;99.90
2389;DHT22;1205;47.984;7.668;2022-09-03T02:54:53;18.40;99.90
2389;DHT22;1205;47.984;7.668;2022-09-03T02:57:19;18.20;99.90
2389;DHT22;1205;47.984;7.668;2022-09-03T02:59:44;18.40;99.90
2389;DHT22;1205;47.984;7.668;2022-09-03T03:02:12;18.40;99.90
2389;DHT22;1205;47.984;7.668;2022-09-03T03:04:38;18.40;99.90
2389;DHT22;1205;47.984;7.668;2022-09-03T03:07:04;18.40;99.90
2389;DHT22;1205;47.984;7.668;2022-09-03T03:09:30;18.40;99.90
2389;DHT22;1205;47.984;7.668;2022-09-03T03:11:56;18.30;99.90
2389;DHT22;1205;47.984;7.668;2022-09-03T03:14:22;18.50;99.90
2389;DHT22;1205;47.984;7.668;2022-09-03T03:16:48;18.60;99.90
2389;DHT22;1205;47.984;7.668;2022-09-03T03:19:14;18.60;99.90
2389;DHT22;1205;47.984;7.668;2022-09-03T03:21:39;18.60;99.90
2389;DHT22;1205;47.984;7.668;2022-09-03T03:24:05;18.60;99.90
2389;DHT22;1205;47.984;7.668;2022-09-03T03:26:31;18.80;99.90
2389;DHT22;1205;47.984;7.668;2022-09-03T03:28:58;19.00;99.90
2389;DHT22;1205;47.984;7.668;2022-09-03T03:31:25;19.10;99.90
2389;DHT22;1205;47.984;7.668;2022-09-03T03:33:57;19.20;99.90
2389;DHT22;1205;47.984;7.668;2022-09-03T03:36:24;19.30;99.90
2389;DHT22;1205;47.984;7.668;2022-09-03T03:38:55;19.30;99.90
2389;DHT22;1205;47.984;7.668;2022-09-03T03:41:23;19.40;99.90
2389;DHT22;1205;47.984;7.668;2022-09-03T03:43:56;19.40;99.90
2389;DHT22;1205;47.984;7.668;2022-09-03T03:46:23;19.40;99.90
2389;DHT22;1205;47.984;7.668;2022-09-03T03:48:51;19.50;99.90
2389;DHT22;1205;47.984;7.668;2022-09-03T03:51:17;19.50;99.90
2389;DHT22;1205;47.984;7.668;2022-09-03T03:53:44;19.50;99.90
2389;DHT22;1205;47.984;7.668;2022-09-03T03:56:12;19.50;99.90
2389;DHT22;1205;47.984;7.668;2022-09-03T03:58:39;19.50;99.90
2389;DHT22;1205;47.984;7.668;2022-09-03T04:01:15;19.60;99.90
2389;DHT22;1205;47.984;7.668;2022-09-03T04:03:41;19.60;99.90
2389;DHT22;1205;47.984;7.668;2022-09-03T04:06:11;19.60;99.90
2389;DHT22;1205;47.984;7.668;2022-09-03T04:08:39;19.50;99.90
2389;DHT22;1205;47.984;7.668;2022-09-03T04:11:08;19.50;99.90
2389;DHT22;1205;47.984;7.668;2022-09-03T04:13:36;19.50;99.90
2389;DHT22;1205;47.984;7.668;2022-09-03T04:16:04;19.50;99.90
2389;DHT22;1205;47.984;7.668;2022-09-03T04:18:31;19.50;99.90
2389;DHT22;1205;47.984;7.668;2022-09-03T04:21:05;19.50;99.90
2389;DHT22;1205;47.984;7.668;2022-09-03T04:23:32;19.50;99.90
2389;DHT22;1205;47.984;7.668;2022-09-03T04:25:58;19.60;99.90
2389;DHT22;1205;47.984;7.668;2022-09-03T04:28:24;19.60;99.90
2389;DHT22;1205;47.984;7.668;2022-09-03T04:30:50;19.60;99.90
2389;DHT22;1205;47.984;7.668;2022-09-03T04:33:16;19.60;99.90
2389;DHT22;1205;47.984;7.668;2022-09-03T04:35:41;19.60;99.90
2389;DHT22;1205;47.984;7.668;2022-09-03T04:38:08;19.70;99.90
2389;DHT22;1205;47.984;7.668;2022-09-03T04:40:33;19.70;99.90
2389;DHT22;1205;47.984;7.668;2022-09-03T04:42:59;19.70;99.90
2389;DHT22;1205;47.984;7.668;2022-09-03T04:45:26;19.60;99.90
2389;DHT22;1205;47.984;7.668;2022-09-03T04:48:02;19.60;99.90
2389;DHT22;1205;47.984;7.668;2022-09-03T04:50:30;19.50;99.90
2389;DHT22;1205;47.984;7.668;2022-09-03T04:53:00;19.50;99.90
2389;DHT22;1205;47.984;7.668;2022-09-03T04:55:27;19.50;99.90
2389;DHT22;1205;47.984;7.668;2022-09-03T04:57:52;19.50;99.90
2389;DHT22;1205;47.984;7.668;2022-09-03T05:00:18;19.60;99.90
2389;DHT22;1205;47.984;7.668;2022-09-03T05:02:45;19.50;99.90
2389;DHT22;1205;47.984;7.668;2022-09-03T05:05:13;19.40;99.90
2389;DHT22;1205;47.984;7.668;2022-09-03T05:07:38;19.50;99.90
2389;DHT22;1205;47.984;7.668;2022-09-03T05:10:07;19.50;99.90
2389;DHT22;1205;47.984;7.668;2022-09-03T05:12:33;19.40;99.90
2389;DHT22;1205;47.984;7.668;2022-09-03T05:14:59;19.40;99.90
2389;DHT22;1205;47.984;7.668;2022-09-03T05:17:26;19.50;99.90
2389;DHT22;1205;47.984;7.668;2022-09-03T05:19:51;19.50;99.90
2389;DHT22;1205;47.984;7.668;2022-09-03T05:22:18;19.50;99.90
2389;DHT22;1205;47.984;7.668;2022-09-03T05:24:48;19.50;99.90
2389;DHT22;1205;47.984;7.668;2022-09-03T05:27:14;19.50;99.90
2389;DHT22;1205;47.984;7.668;2022-09-03T05:29:43;19.50;99.90
2389;DHT22;1205;47.984;7.668;2022-09-03T05:32:10;19.60;99.90
2389;DHT22;1205;47.984;7.668;2022-09-03T05:34:37;19.60;99.90
2389;DHT22;1205;47.984;7.668;2022-09-03T05:37:03;19.30;99.90
2389;DHT22;1205;47.984;7.668;2022-09-03T05:39:28;19.30;99.90
2389;DHT22;1205;47.984;7.668;2022-09-03T05:41:54;19.40;99.90
2389;DHT22;1205;47.984;7.668;2022-09-03T05:44:20;19.50;99.90
2389;DHT22;1205;47.984;7.668;2022-09-03T05:46:49;19.50;99.90
2389;DHT22;1205;47.984;7.668;2022-09-03T05:49:15;19.50;99.90
2389;DHT22;1205;47.984;7.668;2022-09-03T05:51:41;19.60;99.90
2389;DHT22;1205;47.984;7.668;2022-09-03T05:54:09;19.60;99.90
2389;DHT22;1205;47.984;7.668;2022-09-03T05:56:36;19.60;99.90
2389;DHT22;1205;47.984;7.668;2022-09-03T05:59:05;19.70;99.90
2389;DHT22;1205;47.984;7.668;2022-09-03T06:01:41;19.70;99.90
2389;DHT22;1205;47.984;7.668;2022-09-03T06:04:12;19.70;99.90
2389;DHT22;1205;47.984;7.668;2022-09-03T06:06:40;19.80;99.90
2389;DHT22;1205;47.984;7.668;2022-09-03T06:09:08;19.90;99.90
2389;DHT22;1205;47.984;7.668;2022-09-03T06:11:36;20.00;99.90
2389;DHT22;1205;47.984;7.668;2022-09-03T06:14:04;20.10;99.90
2389;DHT22;1205;47.984;7.668;2022-09-03T06:16:31;20.20;99.90
2389;DHT22;1205;47.984;7.668;2022-09-03T06:18:58;20.40;99.90
2389;DHT22;1205;47.984;7.668;2022-09-03T06:21:23;20.60;99.90
2389;DHT22;1205;47.984;7.668;2022-09-03T06:23:51;20.70;99.90
2389;DHT22;1205;47.984;7.668;2022-09-03T06:26:17;20.70;99.90
2389;DHT22;1205;47.984;7.668;2022-09-03T06:28:44;21.00;99.90
2389;DHT22;1205;47.984;7.668;2022-09-03T06:31:12;21.20;99.90
2389;DHT22;1205;47.984;7.668;2022-09-03T06:33:39;21.30;99.90
2389;DHT22;1205;47.984;7.668;2022-09-03T06:36:07;20.90;99.90
2389;DHT22;1205;47.984;7.668;2022-09-03T06:38:35;20.90;99.90
2389;DHT22;1205;47.984;7.668;2022-09-03T06:41:03;20.80;99.90
2389;DHT22;1205;47.984;7.668;2022-09-03T06:43:31;20.70;99.90
2389;DHT22;1205;47.984;7.668;2022-09-03T06:46:05;20.70;99.90
2389;DHT22;1205;47.984;7.668;2022-09-03T06:48:33;20.70;99.90
2389;DHT22;1205;47.984;7.668;2022-09-03T06:51:01;21.00;99.90
2389;DHT22;1205;47.984;7.668;2022-09-03T06:53:29;21.20;99.90
2389;DHT22;1205;47.984;7.668;2022-09-03T06:55:57;21.50;99.90
2389;DHT22;1205;47.984;7.668;2022-09-03T06:58:24;21.50;99.90
2389;DHT22;1205;47.984;7.668;2022-09-03T07:00:50;21.50;99.90
2389;DHT22;1205;47.984;7.668;2022-09-03T07:03:17;21.50;99.90
2389;DHT22;1205;47.984;7.668;2022-09-03T07:05:43;21.60;99.90
2389;DHT22;1205;47.984;7.668;2022-09-03T07:08:09;21.60;99.90
2389;DHT22;1205;47.984;7.668;2022-09-03T07:10:36;21.50;99.90
2389;DHT22;1205;47.984;7.668;2022-09-03T07:13:02;21.80;99.90
2389;DHT22;1205;47.984;7.668;2022-09-03T07:15:28;22.10;99.90
2389;DHT22;1205;47.984;7.668;2022-09-03T07:17:54;22.30;99.90
2389;DHT22;1205;47.984;7.668;2022-09-03T07:20:20;22.70;99.90
2389;DHT22;1205;47.984;7.668;2022-09-03T07:22:45;23.10;99.90
2389;DHT22;1205;47.984;7.668;2022-09-03T07:25:11;23.40;99.90
2389;DHT22;1205;47.984;7.668;2022-09-03T07:27:36;23.50;99.90
2389;DHT22;1205;47.984;7.668;2022-09-03T07:30:02;23.40;99.90
2389;DHT22;1205;47.984;7.668;2022-09-03T07:32:28;23.50;99.90
2389;DHT22;1205;47.984;7.668;2022-09-03T07:34:53;23.70;99.90
2389;DHT22;1205;47.984;7.668;2022-09-03T07:37:19;23.70;99.90
2389;DHT22;1205;47.984;7.668;2022-09-03T07:39:44;23.50;99.90
2389;DHT22;1205;47.984;7.668;2022-09-03T07:42:11;23.20;99.90
2389;DHT22;1205;47.984;7.668;2022-09-03T07:44:36;23.30;99.90
2389;DHT22;1205;47.984;7.668;2022-09-03T07:47:02;23.10;99.90
2389;DHT22;1205;47.984;7.668;2022-09-03T07:49:27;23.00;99.90
2389;DHT22;1205;47.984;7.668;2022-09-03T07:51:53;23.00;99.90
2389;DHT22;1205;47.984;7.668;2022-09-03T07:54:19;23.00;99.90
2389;DHT22;1205;47.984;7.668;2022-09-03T07:56:46;23.20;99.90
2389;DHT22;1205;47.984;7.668;2022-09-03T07:59:11;23.30;99.90
2389;DHT22;1205;47.984;7.668;2022-09-03T08:01:37;23.40;99.90
2389;DHT22;1205;47.984;7.668;2022-09-03T08:04:04;23.70;99.90
2389;DHT22;1205;47.984;7.668;2022-09-03T08:06:32;24.00;99.90
2389;DHT22;1205;47.984;7.668;2022-09-03T08:09:00;24.10;99.70
2389;DHT22;1205;47.984;7.668;2022-09-03T08:11:28;23.80;99.60
2389;DHT22;1205;47.984;7.668;2022-09-03T08:13:58;23.80;99.70
2389;DHT22;1205;47.984;7.668;2022-09-03T08:16:28;23.80;99.50
2389;DHT22;1205;47.984;7.668;2022-09-03T08:18:54;23.80;99.10
2389;DHT22;1205;47.984;7.668;2022-09-03T08:21:21;24.00;98.70
2389;DHT22;1205;47.984;7.668;2022-09-03T08:23:49;24.10;98.10
2389;DHT22;1205;47.984;7.668;2022-09-03T08:26:16;24.30;98.60
2389;DHT22;1205;47.984;7.668;2022-09-03T08:28:43;24.10;97.70
2389;DHT22;1205;47.984;7.668;2022-09-03T08:31:17;23.90;97.50
2389;DHT22;1205;47.984;7.668;2022-09-03T08:33:45;23.90;97.70
2389;DHT22;1205;47.984;7.668;2022-09-03T08:36:17;23.40;98.40
2389;DHT22;1205;47.984;7.668;2022-09-03T08:38:45;23.50;98.80
2389;DHT22;1205;47.984;7.668;2022-09-03T08:41:14;23.50;99.20
2389;DHT22;1205;47.984;7.668;2022-09-03T08:51:57;23.30;99.20
2389;DHT22;1205;47.984;7.668;2022-09-03T08:54:25;23.50;99.80
2389;DHT22;1205;47.984;7.668;2022-09-03T08:56:54;23.50;99.10
2389;DHT22;1205;47.984;7.668;2022-09-03T08:59:20;23.50;98.30
2389;DHT22;1205;47.984;7.668;2022-09-03T09:01:58;23.50;98.60
2389;DHT22;1205;47.984;7.668;2022-09-03T09:07:20;23.50;98.40
2389;DHT22;1205;47.984;7.668;2022-09-03T09:15:29;23.40;99.40
2389;DHT22;1205;47.984;7.668;2022-09-03T09:23:06;22.50;99.90
2389;DHT22;1205;47.984;7.668;2022-09-03T09:25:33;22.30;99.90
2389;DHT22;1205;47.984;7.668;2022-09-03T09:28:19;22.20;99.90
2389;DHT22;1205;47.984;7.668;2022-09-03T09:30:47;22.20;99.90
2389;DHT22;1205;47.984;7.668;2022-09-03T09:33:15;22.10;99.90
2389;DHT22;1205;47.984;7.668;2022-09-03T09:35:42;21.90;99.90
2389;DHT22;1205;47.984;7.668;2022-09-03T09:38:09;21.60;99.90
2389;DHT22;1205;47.984;7.668;2022-09-03T09:40:40;21.50;99.90
2389;DHT22;1205;47.984;7.668;2022-09-03T09:43:13;21.20;99.90
2389;DHT22;1205;47.984;7.668;2022-09-03T09:45:43;21.00;99.90
2389;DHT22;1205;47.984;7.668;2022-09-03T09:48:35;20.80;99.90
2389;DHT22;1205;47.984;7.668;2022-09-03T09:51:37;20.40;99.90
2389;DHT22;1205;47.984;7.668;2022-09-03T09:54:15;19.90;99.90
2389;DHT22;1205;47.984;7.668;2022-09-03T09:56:43;20.00;99.90
2389;DHT22;1205;47.984;7.668;2022-09-03T09:59:10;19.80;99.90
2389;DHT22;1205;47.984;7.668;2022-09-03T10:01:38;19.80;99.90
2389;DHT22;1205;47.984;7.668;2022-09-03T10:04:24;19.70;99.90
2389;DHT22;1205;47.984;7.668;2022-09-03T10:07:21;19.60;99.90
2389;DHT22;1205;47.984;7.668;2022-09-03T10:10:27;19.30;99.90
2389;DHT22;1205;47.984;7.668;2022-09-03T10:13:00;19.30;99.90
2389;DHT22;1205;47.984;7.668;2022-09-03T10:15:34;19.30;99.90
2389;DHT22;1205;47.984;7.668;2022-09-03T10:23:26;18.90;99.90
2389;DHT22;1205;47.984;7.668;2022-09-03T10:28:24;18.70;99.90
2389;DHT22;1205;47.984;7.668;2022-09-03T10:33:39;18.80;99.90
2389;DHT22;1205;47.984;7.668;2022-09-03T10:36:33;18.90;99.90
2389;DHT22;1205;47.984;7.668;2022-09-03T10:39:24;18.90;99.90
2389;DHT22;1205;47.984;7.668;2022-09-03T10:50:47;19.20;99.90
2389;DHT22;1205;47.984;7.668;2022-09-03T10:56:07;19.40;99.90
2389;DHT22;1205;47.984;7.668;2022-09-03T10:59:04;19.70;99.90
2389;DHT22;1205;47.984;7.668;2022-09-03T11:07:20;20.00;99.90
2389;DHT22;1205;47.984;7.668;2022-09-03T11:10:00;20.20;99.90
2389;DHT22;1205;47.984;7.668;2022-09-03T11:12:34;20.50;99.90
2389;DHT22;1205;47.984;7.668;2022-09-03T11:15:25;20.60;99.90
2389;DHT22;1205;47.984;7.668;2022-09-03T11:17:58;20.70;99.90
2389;DHT22;1205;47.984;7.668;2022-09-03T11:20:26;20.80;99.90
2389;DHT22;1205;47.984;7.668;2022-09-03T11:22:54;20.70;99.90
2389;DHT22;1205;47.984;7.668;2022-09-03T11:25:23;20.80;99.90
2389;DHT22;1205;47.984;7.668;2022-09-03T11:28:15;20.90;99.90
2389;DHT22;1205;47.984;7.668;2022-09-03T11:33:27;20.90;99.90
2389;DHT22;1205;47.984;7.668;2022-09-03T11:35:58;21.00;99.90
2389;DHT22;1205;47.984;7.668;2022-09-03T11:38:27;21.20;99.90
2389;DHT22;1205;47.984;7.668;2022-09-03T11:43:45;20.90;99.90
2389;DHT22;1205;47.984;7.668;2022-09-03T11:48:50;20.90;99.90
2389;DHT22;1205;47.984;7.668;2022-09-03T11:51:36;21.10;99.90
2389;DHT22;1205;47.984;7.668;2022-09-03T11:56:45;21.20;99.90
2389;DHT22;1205;47.984;7.668;2022-09-03T12:01:48;21.50;99.90
2389;DHT22;1205;47.984;7.668;2022-09-03T12:04:18;21.60;99.90
2389;DHT22;1205;47.984;7.668;2022-09-03T12:25:54;21.30;99.90
2389;DHT22;1205;47.984;7.668;2022-09-03T12:28:21;21.30;99.90
2389;DHT22;1205;47.984;7.668;2022-09-03T12:30:50;21.30;99.90
2389;DHT22;1205;47.984;7.668;2022-09-03T12:33:19;21.40;99.90
2389;DHT22;1205;47.984;7.668;2022-09-03T12:36:00;21.30;99.90
2389;DHT22;1205;47.984;7.668;2022-09-03T12:38:28;21.60;99.90
2389;DHT22;1205;47.984;7.668;2022-09-03T12:40:56;21.80;99.90
2389;DHT22;1205;47.984;7.668;2022-09-03T12:43:27;21.90;99.90
2389;DHT22;1205;47.984;7.668;2022-09-03T12:45:53;22.10;99.90
2389;DHT22;1205;47.984;7.668;2022-09-03T12:48:19;22.20;99.90
2389;DHT22;1205;47.984;7.668;2022-09-03T12:50:47;22.20;99.90
2389;DHT22;1205;47.984;7.668;2022-09-03T12:53:21;22.40;99.90
2389;DHT22;1205;47.984;7.668;2022-09-03T12:55:52;22.60;99.90
2389;DHT22;1205;47.984;7.668;2022-09-03T13:01:06;22.80;99.90
2389;DHT22;1205;47.984;7.668;2022-09-03T13:03:51;22.70;99.90
2389;DHT22;1205;47.984;7.668;2022-09-03T13:06:24;22.90;99.90
2389;DHT22;1205;47.984;7.668;2022-09-03T13:08:53;23.10;99.90
2389;DHT22;1205;47.984;7.668;2022-09-03T13:11:21;23.10;99.90
2389;DHT22;1205;47.984;7.668;2022-09-03T13:14:03;23.00;99.90
2389;DHT22;1205;47.984;7.668;2022-09-03T13:22:09;23.40;99.90
2389;DHT22;1205;47.984;7.668;2022-09-03T13:25:23;23.50;99.90
2389;DHT22;1205;47.984;7.668;2022-09-03T13:30:55;23.60;99.90
2389;DHT22;1205;47.984;7.668;2022-09-03T13:33:31;23.40;99.90
2389;DHT22;1205;47.984;7.668;2022-09-03T13:38:52;23.40;99.90
2389;DHT22;1205;47.984;7.668;2022-09-03T13:41:42;23.50;99.90
2389;DHT22;1205;47.984;7.668;2022-09-03T13:44:17;23.60;99.90
2389;DHT22;1205;47.984;7.668;2022-09-03T13:49:52;23.60;99.90
2389;DHT22;1205;47.984;7.668;2022-09-03T13:52:59;23.70;99.90
2389;DHT22;1205;47.984;7.668;2022-09-03T13:55:48;23.70;99.90
2389;DHT22;1205;47.984;7.668;2022-09-03T13:58:33;23.80;99.90
2389;DHT22;1205;47.984;7.668;2022-09-03T14:01:26;23.90;99.90
2389;DHT22;1205;47.984;7.668;2022-09-03T14:04:01;23.80;99.90
2389;DHT22;1205;47.984;7.668;2022-09-03T14:06:45;23.80;99.90
2389;DHT22;1205;47.984;7.668;2022-09-03T14:09:53;23.80;99.90
2389;DHT22;1205;47.984;7.668;2022-09-03T14:12:44;24.00;99.90
2389;DHT22;1205;47.984;7.668;2022-09-03T14:15:20;24.10;99.90
2389;DHT22;1205;47.984;7.668;2022-09-03T14:20:58;24.40;99.90
2389;DHT22;1205;47.984;7.668;2022-09-03T14:26:26;24.60;99.90
2389;DHT22;1205;47.984;7.668;2022-09-03T14:29:06;24.80;99.00
2389;DHT22;1205;47.984;7.668;2022-09-03T14:45:07;25.00;99.20
2389;DHT22;1205;47.984;7.668;2022-09-03T14:52:58;25.20;98.90
2389;DHT22;1205;47.984;7.668;2022-09-03T15:01:01;25.40;98.60
2389;DHT22;1205;47.984;7.668;2022-09-03T15:04:01;25.20;97.10
2389;DHT22;1205;47.984;7.668;2022-09-03T15:07:00;25.00;97.20
2389;DHT22;1205;47.984;7.668;2022-09-03T15:12:31;24.80;98.60
2389;DHT22;1205;47.984;7.668;2022-09-03T15:15:03;24.90;99.20
2389;DHT22;1205;47.984;7.668;2022-09-03T15:20:10;24.80;98.50
2389;DHT22;1205;47.984;7.668;2022-09-03T15:25:21;24.80;98.20
2389;DHT22;1205;47.984;7.668;2022-09-03T15:28:10;24.80;97.80
2389;DHT22;1205;47.984;7.668;2022-09-03T15:30:55;24.80;97.80
2389;DHT22;1205;47.984;7.668;2022-09-03T15:33:34;24.80;97.80
2389;DHT22;1205;47.984;7.668;2022-09-03T15:41:00;24.50;96.90
2389;DHT22;1205;47.984;7.668;2022-09-03T15:43:29;24.60;97.80
2389;DHT22;1205;47.984;7.668;2022-09-03T15:45:59;24.50;97.30
2389;DHT22;1205;47.984;7.668;2022-09-03T15:48:55;24.60;98.10
2389;DHT22;1205;47.984;7.668;2022-09-03T15:51:34;24.40;95.10
2389;DHT22;1205;47.984;7.668;2022-09-03T15:54:13;24.40;96.70
2389;DHT22;1205;47.984;7.668;2022-09-03T15:56:52;24.30;97.10
2389;DHT22;1205;47.984;7.668;2022-09-03T16:02:17;24.40;97.80
2389;DHT22;1205;47.984;7.668;2022-09-03T16:05:15;24.40;97.50
2389;DHT22;1205;47.984;7.668;2022-09-03T16:08:03;24.40;97.80
2389;DHT22;1205;47.984;7.668;2022-09-03T16:13:33;24.30;97.70
2389;DHT22;1205;47.984;7.668;2022-09-03T16:16:07;24.30;97.80
2389;DHT22;1205;47.984;7.668;2022-09-03T16:18:54;24.30;98.10
2389;DHT22;1205;47.984;7.668;2022-09-03T16:21:23;24.20;98.40
2389;DHT22;1205;47.984;7.668;2022-09-03T16:24:18;24.10;97.70
2389;DHT22;1205;47.984;7.668;2022-09-03T16:27:04;24.00;98.30
2389;DHT22;1205;47.984;7.668;2022-09-03T16:29:32;23.90;99.10
2389;DHT22;1205;47.984;7.668;2022-09-03T16:32:26;23.90;99.10
2389;DHT22;1205;47.984;7.668;2022-09-03T16:35:08;23.90;99.30
2389;DHT22;1205;47.984;7.668;2022-09-03T16:40:50;23.90;99.70
2389;DHT22;1205;47.984;7.668;2022-09-03T16:49:06;23.80;99.90
2389;DHT22;1205;47.984;7.668;2022-09-03T16:52:02;23.80;99.90
2389;DHT22;1205;47.984;7.668;2022-09-03T16:54:45;23.70;99.90
2389;DHT22;1205;47.984;7.668;2022-09-03T17:11:08;23.50;99.80
2389;DHT22;1205;47.984;7.668;2022-09-03T17:13:49;23.50;99.50
2389;DHT22;1205;47.984;7.668;2022-09-03T17:24:42;23.40;99.10
2389;DHT22;1205;47.984;7.668;2022-09-03T17:36:14;22.90;99.90
2389;DHT22;1205;47.984;7.668;2022-09-03T17:49:47;22.60;99.90
2389;DHT22;1205;47.984;7.668;2022-09-03T17:52:27;22.50;99.90
2389;DHT22;1205;47.984;7.668;2022-09-03T17:55:00;22.50;99.90
2389;DHT22;1205;47.984;7.668;2022-09-03T17:57:31;22.40;99.90
2389;DHT22;1205;47.984;7.668;2022-09-03T18:00:08;22.30;99.90
2389;DHT22;1205;47.984;7.668;2022-09-03T18:02:44;22.30;99.90
2389;DHT22;1205;47.984;7.668;2022-09-03T18:05:23;22.20;99.90
2389;DHT22;1205;47.984;7.668;2022-09-03T18:08:06;22.10;99.90
2389;DHT22;1205;47.984;7.668;2022-09-03T18:13:44;21.90;99.90
2389;DHT22;1205;47.984;7.668;2022-09-03T18:16:13;21.80;99.90
2389;DHT22;1205;47.984;7.668;2022-09-03T18:18:46;21.70;99.90
2389;DHT22;1205;47.984;7.668;2022-09-03T18:21:20;21.60;99.90
2389;DHT22;1205;47.984;7.668;2022-09-03T18:24:24;21.60;99.90
2389;DHT22;1205;47.984;7.668;2022-09-03T18:27:24;21.60;99.90
2389;DHT22;1205;47.984;7.668;2022-09-03T18:30:13;21.50;99.90
2389;DHT22;1205;47.984;7.668;2022-09-03T18:32:58;21.40;99.90
2389;DHT22;1205;47.984;7.668;2022-09-03T18:35:43;21.40;99.90
2389;DHT22;1205;47.984;7.668;2022-09-03T18:38:35;21.30;99.90
2389;DHT22;1205;47.984;7.668;2022-09-03T18:41:59;21.20;99.90
2389;DHT22;1205;47.984;7.668;2022-09-03T18:58:06;21.00;99.90
2389;DHT22;1205;47.984;7.668;2022-09-03T19:00:22;20.90;99.90
2389;DHT22;1205;47.984;7.668;2022-09-03T19:13:02;20.70;99.90
2389;DHT22;1205;47.984;7.668;2022-09-03T19:22:33;20.40;99.90
2389;DHT22;1205;47.984;7.668;2022-09-03T19:25:18;20.40;99.90
2389;DHT22;1205;47.984;7.668;2022-09-03T19:28:12;20.30;99.90
2389;DHT22;1205;47.984;7.668;2022-09-03T19:41:01;20.10;99.90
2389;DHT22;1205;47.984;7.668;2022-09-03T19:46:58;20.00;99.90
2389;DHT22;1205;47.984;7.668;2022-09-03T19:55:39;19.80;99.90
2389;DHT22;1205;47.984;7.668;2022-09-03T19:58:28;19.70;99.90
2389;DHT22;1205;47.984;7.668;2022-09-03T20:01:13;19.80;99.90
2389;DHT22;1205;47.984;7.668;2022-09-03T20:04:09;19.80;99.90
2389;DHT22;1205;47.984;7.668;2022-09-03T20:06:54;19.60;99.90
2389;DHT22;1205;47.984;7.668;2022-09-03T20:09:41;19.50;99.90
2389;DHT22;1205;47.984;7.668;2022-09-03T20:12:31;19.50;99.90
2389;DHT22;1205;47.984;7.668;2022-09-03T20:14:58;19.50;99.90
2389;DHT22;1205;47.984;7.668;2022-09-03T20:17:37;19.50;99.90
2389;DHT22;1205;47.984;7.668;2022-09-03T20:20:24;19.30;99.90
2389;DHT22;1205;47.984;7.668;2022-09-03T20:23:00;19.20;99.90
2389;DHT22;1205;47.984;7.668;2022-09-03T20:34:25;19.10;99.90
2389;DHT22;1205;47.984;7.668;2022-09-03T20:37:37;19.10;99.90
2389;DHT22;1205;47.984;7.668;2022-09-03T20:45:16;19.10;99.90
2389;DHT22;1205;47.984;7.668;2022-09-03T20:55:28;18.90;99.90
2389;DHT22;1205;47.984;7.668;2022-09-03T20:58:09;18.90;99.90
2389;DHT22;1205;47.984;7.668;2022-09-03T21:00:58;19.00;99.90
2389;DHT22;1205;47.984;7.668;2022-09-03T21:03:36;18.90;99.90
2389;DHT22;1205;47.984;7.668;2022-09-03T21:09:00;18.90;99.90
2389;DHT22;1205;47.984;7.668;2022-09-03T21:11:47;18.90;99.90
2389;DHT22;1205;47.984;7.668;2022-09-03T21:14:45;18.90;99.90
2389;DHT22;1205;47.984;7.668;2022-09-03T21:22:52;18.60;99.90
2389;DHT22;1205;47.984;7.668;2022-09-03T21:25:25;18.60;99.90
2389;DHT22;1205;47.984;7.668;2022-09-03T21:28:00;18.50;99.90
2389;DHT22;1205;47.984;7.668;2022-09-03T21:30:26;18.50;99.90
2389;DHT22;1205;47.984;7.668;2022-09-03T21:33:18;18.40;99.90
2389;DHT22;1205;47.984;7.668;2022-09-03T21:38:35;18.40;99.90
2389;DHT22;1205;47.984;7.668;2022-09-03T21:41:51;18.40;99.90
2389;DHT22;1205;47.984;7.668;2022-09-03T21:49:12;18.50;99.90
2389;DHT22;1205;47.984;7.668;2022-09-03T21:51:45;18.40;99.90
2389;DHT22;1205;47.984;7.668;2022-09-03T21:54:30;18.30;99.90
2389;DHT22;1205;47.984;7.668;2022-09-03T21:57:18;18.40;99.90
2389;DHT22;1205;47.984;7.668;2022-09-03T22:00:13;18.40;99.90
2389;DHT22;1205;47.984;7.668;2022-09-03T22:02:43;18.40;99.90
2389;DHT22;1205;47.984;7.668;2022-09-03T22:05:11;18.30;99.90
2389;DHT22;1205;47.984;7.668;2022-09-03T22:10:43;18.50;99.90
2389;DHT22;1205;47.984;7.668;2022-09-03T22:13:27;18.30;99.90
2389;DHT22;1205;47.984;7.668;2022-09-03T22:16:02;18.30;99.90
2389;DHT22;1205;47.984;7.668;2022-09-03T22:18:31;18.30;99.90
2389;DHT22;1205;47.984;7.668;2022-09-03T22:21:13;18.20;99.90
2389;DHT22;1205;47.984;7.668;2022-09-03T22:26:31;18.10;99.90
2389;DHT22;1205;47.984;7.668;2022-09-03T22:31:55;18.00;99.90
2389;DHT22;1205;47.984;7.668;2022-09-03T22:34:39;18.00;99.90
2389;DHT22;1205;47.984;7.668;2022-09-03T22:37:19;17.90;99.90
2389;DHT22;1205;47.984;7.668;2022-09-03T22:39:51;17.80;99.90
2389;DHT22;1205;47.984;7.668;2022-09-03T22:48:34;17.70;99.90
2389;DHT22;1205;47.984;7.668;2022-09-03T22:51:04;17.70;99.90
2389;DHT22;1205;47.984;7.668;2022-09-03T22:56:18;17.80;99.90